Time;durP1;ratioP1;P1;durP2;ratioP2;P2;SDS_P1;SDS_P2;PMS_P1;PMS_P2;Temp;Humidity;BMP_temperature;BMP_pressure;BME280_temperature;BME280_humidity;BME280_pressure;Samples;Min_cycle;Max_cycle;Signal;HPM_P1;HPM_P2
2024/02/05 00:00:06;;;;;;;2.35;1.40;;;;;;;;;;5054407;28;20025;-59
2024/02/05 00:02:31;;;;;;;2.00;1.23;;;;;;;;;;5054262;28;20033;-59
2024/02/05 00:04:57;;;;;;;3.75;1.40;;;;;;;;;;5054357;28;20412;-59
2024/02/05 00:07:23;;;;;;;2.58;1.38;;;;;;;;;;5054529;28;20021;-59
2024/02/05 00:09:49;;;;;;;2.65;1.85;;;;;;;;;;5055106;28;20025;-59
2024/02/05 00:12:18;;;;;;;3.40;2.03;;;;;;;;;;5054731;28;20021;-59
2024/02/05 00:14:44;;;;;;;3.42;2.03;;;;;;;;;;5054116;28;20036;-59
2024/02/05 00:17:10;;;;;;;4.53;1.90;;;;;;;;;;5053684;28;20514;-59
2024/02/05 00:19:36;;;;;;;1.75;0.88;;;;;;;;;;5054690;28;20056;-59
2024/02/05 00:22:02;;;;;;;1.33;0.77;;;;;;;;;;5054546;28;20113;-59
2024/02/05 00:24:28;;;;;;;2.50;1.48;;;;;;;;;;5054365;28;20427;-59
2024/02/05 00:26:54;;;;;;;1.63;0.93;;;;;;;;;;5054715;28;20079;-59
2024/02/05 00:29:20;;;;;;;1.90;1.13;;;;;;;;;;5053652;28;20031;-59
2024/02/05 00:31:47;;;;;;;2.35;0.98;;;;;;;;;;5053795;28;20033;-59
2024/02/05 00:34:13;;;;;;;3.20;0.82;;;;;;;;;;5053844;28;20029;-59
2024/02/05 00:36:39;;;;;;;1.92;0.88;;;;;;;;;;5054282;28;20028;-59
2024/02/05 00:39:10;;;;;;;2.00;1.20;;;;;;;;;;5053868;28;20060;-59
2024/02/05 00:41:35;;;;;;;;;;;;;;;;;;5054784;28;20047;-59
2024/02/05 00:44:01;;;;;;;2.05;0.82;;;;;;;;;;5054570;28;20438;-59
2024/02/05 00:46:28;;;;;;;2.63;0.90;;;;;;;;;;5053383;28;20021;-59
2024/02/05 00:48:54;;;;;;;1.60;0.82;;;;;;;;;;5054218;28;20033;-58
2024/02/05 00:51:20;;;;;;;1.73;0.98;;;;;;;;;;5054039;28;20025;-59
2024/02/05 00:53:49;;;;;;;1.77;0.93;;;;;;;;;;5054451;28;20324;-59
2024/02/05 00:56:16;;;;;;;1.42;0.85;;;;;;;;;;5053583;28;20535;-58
2024/02/05 00:58:42;;;;;;;2.00;0.80;;;;;;;;;;5054082;28;20021;-58
2024/02/05 01:01:08;;;;;;;2.10;0.90;;;;;;;;;;5053535;28;20396;-59
2024/02/05 01:03:34;;;;;;;2.90;0.90;;;;;;;;;;5054066;28;20407;-59
2024/02/05 01:06:00;;;;;;;1.77;0.70;;;;;;;;;;5054038;28;20075;-59
2024/02/05 01:08:26;;;;;;;1.30;0.75;;;;;;;;;;5053762;28;20475;-58
2024/02/05 01:10:56;;;;;;;1.48;0.80;;;;;;;;;;5053484;28;20037;-59
2024/02/05 01:13:22;;;;;;;1.25;0.70;;;;;;;;;;5054280;28;20517;-59
2024/02/05 01:15:48;;;;;;;1.92;0.98;;;;;;;;;;5053347;28;20033;-58
2024/02/05 01:18:14;;;;;;;1.75;0.77;;;;;;;;;;5053137;28;20471;-59
2024/02/05 01:20:41;;;;;;;1.55;0.88;;;;;;;;;;5053380;28;20061;-59
2024/02/05 01:23:07;;;;;;;1.23;0.57;;;;;;;;;;5053104;28;20064;-59
2024/02/05 01:25:33;;;;;;;1.70;0.77;;;;;;;;;;5053892;28;20392;-59
2024/02/05 01:27:59;;;;;;;1.73;0.93;;;;;;;;;;5053670;28;20398;-59
2024/02/05 01:30:25;;;;;;;2.47;1.00;;;;;;;;;;5053243;28;20108;-58
2024/02/05 01:32:51;;;;;;;1.13;0.60;;;;;;;;;;5053756;28;20086;-59
2024/02/05 01:35:17;;;;;;;1.17;0.70;;;;;;;;;;5053365;28;20025;-59
2024/02/05 01:37:42;;;;;;;4.38;1.20;;;;;;;;;;5053747;28;20036;-59
2024/02/05 01:40:09;;;;;;;1.98;1.10;;;;;;;;;;5053180;28;20044;-59
2024/02/05 01:42:36;;;;;;;1.25;0.50;;;;;;;;;;5052813;28;20475;-59
2024/02/05 01:45:04;;;;;;;1.23;0.50;;;;;;;;;;5053074;28;20116;-59
2024/02/05 01:47:31;;;;;;;1.23;0.70;;;;;;;;;;5053510;28;20044;-59
2024/02/05 01:49:57;;;;;;;1.65;0.85;;;;;;;;;;5052793;28;20111;-59
2024/02/05 01:52:23;;;;;;;1.25;0.45;;;;;;;;;;5052983;28;20098;-59
2024/02/05 01:54:49;;;;;;;1.15;0.63;;;;;;;;;;5053588;28;20029;-59
2024/02/05 01:57:16;;;;;;;1.02;0.52;;;;;;;;;;5053583;28;20045;-59
2024/02/05 01:59:42;;;;;;;1.02;0.40;;;;;;;;;;5052775;28;20021;-59
2024/02/05 02:02:08;;;;;;;1.35;0.68;;;;;;;;;;5052957;28;20055;-59
2024/02/05 02:04:35;;;;;;;1.33;0.57;;;;;;;;;;5055654;28;20470;-59
2024/02/05 02:07:03;;;;;;;1.08;0.57;;;;;;;;;;5057109;28;20116;-59
2024/02/05 02:09:30;;;;;;;0.88;0.50;;;;;;;;;;5057145;28;20035;-59
2024/02/05 02:11:56;;;;;;;0.98;0.52;;;;;;;;;;5056215;28;20458;-59
2024/02/05 02:14:25;;;;;;;0.90;0.50;;;;;;;;;;5057032;28;20371;-59
2024/02/05 02:16:52;;;;;;;0.82;0.40;;;;;;;;;;5056207;28;20120;-59
2024/02/05 02:19:18;;;;;;;1.15;0.35;;;;;;;;;;5056669;28;20025;-58
2024/02/05 02:21:45;;;;;;;0.70;0.30;;;;;;;;;;5056527;28;20036;-58
2024/02/05 02:24:12;;;;;;;0.52;0.30;;;;;;;;;;5056231;28;20028;-58
2024/02/05 02:26:38;;;;;;;0.75;0.40;;;;;;;;;;5055854;28;20486;-59
2024/02/05 02:29:04;;;;;;;1.50;0.50;;;;;;;;;;5056183;28;20021;-58
2024/02/05 02:31:32;;;;;;;1.55;0.40;;;;;;;;;;5054537;28;20021;-58
2024/02/05 02:34:09;;;;;;;1.13;0.50;;;;;;;;;;5056103;28;20032;-59
2024/02/05 02:36:36;;;;;;;0.35;0.25;;;;;;;;;;5055712;28;20087;-58
2024/02/05 02:39:03;;;;;;;0.57;0.30;;;;;;;;;;5055538;28;20064;-59
2024/02/05 02:41:31;;;;;;;1.13;0.73;;;;;;;;;;5055681;28;20430;-58
2024/02/05 02:44:00;;;;;;;0.73;0.30;;;;;;;;;;5055908;28;20025;-58
2024/02/05 02:46:30;;;;;;;0.35;0.22;;;;;;;;;;5055844;28;20036;-59
2024/02/05 02:48:56;;;;;;;1.08;0.60;;;;;;;;;;5055860;28;20028;-58
2024/02/05 02:51:22;;;;;;;1.27;0.50;;;;;;;;;;5055712;28;20025;-58
2024/02/05 02:53:48;;;;;;;0.93;0.50;;;;;;;;;;5056513;28;20060;-58
2024/02/05 02:56:14;;;;;;;0.65;0.40;;;;;;;;;;5055483;28;20084;-58
2024/02/05 02:58:40;;;;;;;1.33;0.50;;;;;;;;;;5055600;28;20072;-58
2024/02/05 03:01:06;;;;;;;0.40;0.30;;;;;;;;;;5055597;28;20429;-58
2024/02/05 03:03:32;;;;;;;2.08;0.85;;;;;;;;;;5055543;28;20437;-58
2024/02/05 03:05:58;;;;;;;1.15;0.57;;;;;;;;;;5055299;28;20025;-59
2024/02/05 03:08:24;;;;;;;1.13;0.50;;;;;;;;;;5053754;28;20069;-58
2024/02/05 03:10:50;;;;;;;0.95;0.40;;;;;;;;;;5054645;28;20044;-58
2024/02/05 03:13:16;;;;;;;3.72;0.60;;;;;;;;;;5055271;28;20447;-58
2024/02/05 03:15:42;;;;;;;0.60;0.30;;;;;;;;;;5055272;28;20116;-58
2024/02/05 03:18:09;;;;;;;1.25;0.30;;;;;;;;;;5055359;28;20470;-58
2024/02/05 03:20:38;;;;;;;0.60;0.28;;;;;;;;;;5055214;28;20075;-58
2024/02/05 03:23:06;;;;;;;3.13;0.55;;;;;;;;;;5055178;28;20063;-58
2024/02/05 03:25:32;;;;;;;0.63;0.20;;;;;;;;;;5054778;28;20520;-58
2024/02/05 03:27:59;;;;;;;0.77;0.40;;;;;;;;;;5055639;28;20087;-58
2024/02/05 03:30:29;;;;;;;3.42;0.40;;;;;;;;;;5055007;28;20035;-58
2024/02/05 03:32:55;;;;;;;1.17;0.45;;;;;;;;;;5054573;28;20029;-57
2024/02/05 03:35:21;;;;;;;1.80;0.40;;;;;;;;;;5055560;28;20463;-58
2024/02/05 03:37:47;;;;;;;1.13;0.88;;;;;;;;;;5055423;28;20024;-58
2024/02/05 03:40:13;;;;;;;0.65;0.35;;;;;;;;;;5055382;28;20033;-58
2024/02/05 03:42:39;;;;;;;0.43;0.20;;;;;;;;;;5055567;28;20166;-58
2024/02/05 03:45:05;;;;;;;0.63;0.20;;;;;;;;;;5054349;28;20036;-58
2024/02/05 03:47:31;;;;;;;2.53;0.75;;;;;;;;;;5055017;28;20036;-58
2024/02/05 03:49:58;;;;;;;0.60;0.30;;;;;;;;;;5054627;28;20108;-58
2024/02/05 03:52:23;;;;;;;0.75;0.25;;;;;;;;;;5055130;28;20371;-58
2024/02/05 03:54:49;;;;;;;3.33;0.15;;;;;;;;;;5055383;28;20025;-58
2024/02/05 03:57:15;;;;;;;0.82;0.30;;;;;;;;;;5055098;28;20463;-58
2024/02/05 03:59:41;;;;;;;1.27;0.43;;;;;;;;;;5054736;28;20028;-58
2024/02/05 04:02:11;;;;;;;0.63;0.22;;;;;;;;;;5054466;28;20025;-58
2024/02/05 04:04:37;;;;;;;1.10;0.35;;;;;;;;;;5054038;28;20542;-58
2024/02/05 04:07:03;;;;;;;1.88;0.22;;;;;;;;;;5054315;28;20071;-58
2024/02/05 04:09:29;;;;;;;0.50;0.20;;;;;;;;;;5054843;28;20025;-58
2024/02/05 04:11:55;;;;;;;0.45;0.10;;;;;;;;;;5054179;28;20021;-58
2024/02/05 04:14:21;;;;;;;0.35;0.10;;;;;;;;;;5054269;28;20469;-58
2024/02/05 04:16:50;;;;;;;1.30;0.30;;;;;;;;;;5054521;28;20144;-58
2024/02/05 04:19:17;;;;;;;1.08;0.40;;;;;;;;;;5054944;28;20021;-58
2024/02/05 04:21:43;;;;;;;1.45;0.55;;;;;;;;;;5054836;28;20036;-58
2024/02/05 04:24:09;;;;;;;1.17;0.52;;;;;;;;;;5053697;28;20379;-58
2024/02/05 04:26:34;;;;;;;0.85;0.50;;;;;;;;;;5053606;28;20025;-59
2024/02/05 04:29:00;;;;;;;1.63;0.68;;;;;;;;;;5054513;28;20032;-58
2024/02/05 04:31:26;;;;;;;1.33;0.60;;;;;;;;;;5054227;28;20047;-58
2024/02/05 04:33:54;;;;;;;0.85;0.47;;;;;;;;;;5053812;28;20021;-58
2024/02/05 04:36:20;;;;;;;1.33;0.50;;;;;;;;;;5053818;28;20360;-58
2024/02/05 04:38:46;;;;;;;1.38;0.75;;;;;;;;;;5054358;28;20028;-58
2024/02/05 04:41:12;;;;;;;2.15;1.02;;;;;;;;;;5053755;28;20057;-58
2024/02/05 04:43:41;;;;;;;1.63;0.57;;;;;;;;;;5053732;28;20124;-57
2024/02/05 04:46:08;;;;;;;1.25;0.60;;;;;;;;;;5053684;28;20059;-58
2024/02/05 04:48:35;;;;;;;2.15;0.70;;;;;;;;;;5054551;28;20375;-58
2024/02/05 04:51:01;;;;;;;2.92;0.75;;;;;;;;;;5054140;28;20029;-58
2024/02/05 04:53:27;;;;;;;1.48;0.75;;;;;;;;;;5053614;28;20123;-59
2024/02/05 04:55:53;;;;;;;2.13;0.65;;;;;;;;;;5053217;28;20399;-59
2024/02/05 04:58:19;;;;;;;1.38;0.70;;;;;;;;;;5053268;28;20168;-59
2024/02/05 05:00:48;;;;;;;1.60;0.95;;;;;;;;;;5053225;28;20535;-58
2024/02/05 05:03:15;;;;;;;1.38;0.60;;;;;;;;;;5053604;28;20079;-59
2024/02/05 05:05:42;;;;;;;2.53;0.45;;;;;;;;;;5053604;28;20083;-59
2024/02/05 05:08:08;;;;;;;1.48;0.77;;;;;;;;;;5053936;28;20055;-59
2024/02/05 05:10:34;;;;;;;0.50;0.30;;;;;;;;;;5053568;28;20029;-59
2024/02/05 05:13:03;;;;;;;1.88;0.88;;;;;;;;;;5053540;28;20025;-59
2024/02/05 05:15:29;;;;;;;0.68;0.35;;;;;;;;;;5053915;28;20467;-60
2024/02/05 05:17:55;;;;;;;0.80;0.30;;;;;;;;;;5053238;28;20100;-59
2024/02/05 05:20:21;;;;;;;4.28;0.52;;;;;;;;;;5053203;28;20368;-59
2024/02/05 05:22:47;;;;;;;0.93;0.50;;;;;;;;;;5053395;28;20017;-58
2024/02/05 05:25:13;;;;;;;1.05;0.50;;;;;;;;;;5053694;28;20021;-60
2024/02/05 05:27:39;;;;;;;0.80;0.30;;;;;;;;;;5053920;28;20033;-60
2024/02/05 05:30:05;;;;;;;1.25;0.60;;;;;;;;;;5053326;28;20075;-59
2024/02/05 05:32:31;;;;;;;0.95;0.50;;;;;;;;;;5052948;28;20425;-57
2024/02/05 05:34:57;;;;;;;1.02;0.40;;;;;;;;;;5053224;28;20029;-58
2024/02/05 05:37:23;;;;;;;0.38;0.17;;;;;;;;;;5053675;28;20033;-59
2024/02/05 05:39:51;;;;;;;0.80;0.38;;;;;;;;;;5057105;28;20029;-60
2024/02/05 05:42:17;;;;;;;2.22;0.60;;;;;;;;;;5057542;28;20104;-60
2024/02/05 05:44:43;;;;;;;1.00;0.40;;;;;;;;;;5057737;28;20075;-58
2024/02/05 05:47:09;;;;;;;1.00;0.40;;;;;;;;;;5056744;28;20033;-59
2024/02/05 05:49:35;;;;;;;1.02;0.38;;;;;;;;;;5057139;28;20025;-58
2024/02/05 05:52:01;;;;;;;1.92;0.70;;;;;;;;;;5057243;28;20035;-58
2024/02/05 05:54:28;;;;;;;1.48;0.63;;;;;;;;;;5057576;28;20070;-58
2024/02/05 05:56:55;;;;;;;3.70;0.85;;;;;;;;;;5056721;28;20494;-59
2024/02/05 05:59:21;;;;;;;2.75;0.60;;;;;;;;;;5056819;28;20036;-59
2024/02/05 06:01:47;;;;;;;0.95;0.40;;;;;;;;;;5056409;28;20021;-59
2024/02/05 06:04:13;;;;;;;1.85;0.47;;;;;;;;;;5056485;28;20017;-59
2024/02/05 06:06:39;;;;;;;0.93;0.47;;;;;;;;;;5055429;28;20029;-60
2024/02/05 06:09:06;;;;;;;1.48;0.47;;;;;;;;;;5057272;28;20496;-55
2024/02/05 06:11:32;;;;;;;1.58;0.90;;;;;;;;;;5056537;28;20033;-57
2024/02/05 06:13:58;;;;;;;1.35;0.80;;;;;;;;;;5056470;28;20029;-56
2024/02/05 06:16:24;;;;;;;1.48;0.60;;;;;;;;;;5056370;28;20052;-57
2024/02/05 06:18:50;;;;;;;1.08;0.43;;;;;;;;;;5056974;28;20039;-57
2024/02/05 06:21:17;;;;;;;1.75;0.80;;;;;;;;;;5056296;28;20029;-56
2024/02/05 06:23:43;;;;;;;0.85;0.30;;;;;;;;;;5055979;28;20029;-54
2024/02/05 06:26:10;;;;;;;2.85;1.30;;;;;;;;;;5056723;28;20040;-57
2024/02/05 06:28:37;;;;;;;1.95;0.88;;;;;;;;;;5056677;28;20112;-56
2024/02/05 06:31:03;;;;;;;0.82;0.30;;;;;;;;;;5056168;28;20021;-54
2024/02/05 06:33:33;;;;;;;1.00;0.43;;;;;;;;;;5055781;28;20029;-56
2024/02/05 06:35:59;;;;;;;2.30;1.17;;;;;;;;;;5056211;28;20082;-57
2024/02/05 06:38:25;;;;;;;0.85;0.45;;;;;;;;;;5056545;28;20455;-53
2024/02/05 06:40:51;;;;;;;0.90;0.52;;;;;;;;;;5056297;28;20028;-57
2024/02/05 06:43:17;;;;;;;1.70;0.70;;;;;;;;;;5055743;28;20040;-53
2024/02/05 06:45:43;;;;;;;5.50;0.63;;;;;;;;;;5055589;28;20029;-57
2024/02/05 06:48:09;;;;;;;2.15;0.55;;;;;;;;;;5056699;28;20343;-57
2024/02/05 06:50:35;;;;;;;1.30;0.70;;;;;;;;;;5055255;28;20031;-56
2024/02/05 06:53:02;;;;;;;3.30;0.85;;;;;;;;;;5056344;28;20032;-57
2024/02/05 06:55:30;;;;;;;1.52;0.98;;;;;;;;;;5055758;28;20135;-57
2024/02/05 06:57:56;;;;;;;1.63;0.60;;;;;;;;;;5055723;28;20056;-54
2024/02/05 07:00:22;;;;;;;1.00;0.60;;;;;;;;;;5056136;28;20028;-55
2024/02/05 07:02:49;;;;;;;1.48;0.68;;;;;;;;;;5056170;28;20028;-58
2024/02/05 07:05:16;;;;;;;1.25;0.47;;;;;;;;;;5056078;28;20059;-57
2024/02/05 07:07:42;;;;;;;2.80;0.75;;;;;;;;;;5055692;28;20458;-57
2024/02/05 07:10:08;;;;;;;1.02;0.63;;;;;;;;;;5055472;28;20028;-57
2024/02/05 07:12:34;;;;;;;1.58;0.63;;;;;;;;;;5055745;28;20025;-56
2024/02/05 07:15:00;;;;;;;1.27;0.63;;;;;;;;;;5055045;28;20079;-56
2024/02/05 07:17:33;;;;;;;3.83;0.80;;;;;;;;;;5055006;28;20112;-55
2024/02/05 07:20:01;;;;;;;0.95;0.50;;;;;;;;;;5055056;28;20029;-56
2024/02/05 07:22:27;;;;;;;1.90;0.85;;;;;;;;;;5055011;28;20039;-56
2024/02/05 07:24:53;;;;;;;2.50;1.20;;;;;;;;;;5054893;28;20036;-56
2024/02/05 07:27:23;;;;;;;1.70;0.60;;;;;;;;;;5054908;28;20033;-57
2024/02/05 07:29:49;;;;;;;2.40;0.65;;;;;;;;;;5055663;28;20017;-57
2024/02/05 07:32:15;;;;;;;1.00;0.40;;;;;;;;;;5055616;28;20329;-56
2024/02/05 07:34:41;;;;;;;1.05;0.60;;;;;;;;;;5055004;28;20493;-57
2024/02/05 07:37:07;;;;;;;1.85;0.73;;;;;;;;;;5055351;28;20029;-57
2024/02/05 07:39:33;;;;;;;11.27;1.02;;;;;;;;;;5055274;28;20493;-56
2024/02/05 07:42:00;;;;;;;0.55;0.28;;;;;;;;;;5055452;28;20391;-57
2024/02/05 07:44:26;;;;;;;1.90;0.80;;;;;;;;;;5054857;28;20406;-56
2024/02/05 07:46:52;;;;;;;1.65;0.82;;;;;;;;;;5055302;28;20056;-57
2024/02/05 07:49:19;;;;;;;1.70;0.80;;;;;;;;;;5055273;28;20120;-55
2024/02/05 07:51:48;;;;;;;1.95;1.00;;;;;;;;;;5054618;28;20120;-57
2024/02/05 07:54:14;;;;;;;2.03;0.98;;;;;;;;;;5054559;28;20033;-56
2024/02/05 07:56:43;;;;;;;1.20;0.50;;;;;;;;;;5054792;28;20114;-56
2024/02/05 07:59:09;;;;;;;1.58;0.80;;;;;;;;;;5055028;28;20414;-55
2024/02/05 08:01:36;;;;;;;1.60;0.90;;;;;;;;;;5053927;28;20100;-57
2024/02/05 08:04:02;;;;;;;1.98;0.82;;;;;;;;;;5054801;28;20065;-57
2024/02/05 08:06:29;;;;;;;1.65;0.60;;;;;;;;;;5054957;28;20033;-57
2024/02/05 08:08:56;;;;;;;1.55;0.60;;;;;;;;;;5054707;28;20512;-56
2024/02/05 08:11:23;;;;;;;1.17;0.57;;;;;;;;;;5054876;28;20115;-57
2024/02/05 08:13:49;;;;;;;2.05;0.65;;;;;;;;;;5054305;28;20032;-52
2024/02/05 08:16:15;;;;;;;1.13;0.50;;;;;;;;;;5054113;28;20037;-57
2024/02/05 08:18:41;;;;;;;0.98;0.40;;;;;;;;;;5054867;28;20107;-56
2024/02/05 08:21:07;;;;;;;3.63;0.70;;;;;;;;;;5054500;28;20367;-56
2024/02/05 08:23:33;;;;;;;1.83;0.63;;;;;;;;;;5054174;28;20027;-54
2024/02/05 08:25:59;;;;;;;1.10;0.50;;;;;;;;;;5054090;28;20033;-56
2024/02/05 08:28:25;;;;;;;1.95;1.23;;;;;;;;;;5054860;28;20112;-56
2024/02/05 08:30:51;;;;;;;1.17;0.40;;;;;;;;;;5054024;28;20112;-56
2024/02/05 08:33:17;;;;;;;0.63;0.35;;;;;;;;;;5054019;28;20067;-57
2024/02/05 08:35:43;;;;;;;1.70;0.80;;;;;;;;;;5054379;28;20037;-57
2024/02/05 08:38:09;;;;;;;5.20;0.60;;;;;;;;;;5054529;28;20095;-57
2024/02/05 08:40:35;;;;;;;1.35;0.70;;;;;;;;;;5052660;28;20025;-57
2024/02/05 08:43:01;;;;;;;0.47;0.35;;;;;;;;;;5054038;28;20489;-56
2024/02/05 08:45:28;;;;;;;0.85;0.47;;;;;;;;;;5053777;28;20054;-57
2024/02/05 08:47:54;;;;;;;1.13;0.50;;;;;;;;;;5054340;28;20025;-55
2024/02/05 08:50:28;;;;;;;1.55;0.80;;;;;;;;;;5053862;28;20078;-56
2024/02/05 08:52:54;;;;;;;0.85;0.40;;;;;;;;;;5054545;28;20033;-57
2024/02/05 08:55:20;;;;;;;1.05;0.50;;;;;;;;;;5053836;28;20059;-56
2024/02/05 08:57:49;;;;;;;0.82;0.40;;;;;;;;;;5053607;28;20147;-57
2024/02/05 09:00:17;;;;;;;1.33;0.43;;;;;;;;;;5054199;28;20405;-57
2024/02/05 09:02:43;;;;;;;0.82;0.47;;;;;;;;;;5053621;28;20040;-57
2024/02/05 09:05:09;;;;;;;1.40;0.73;;;;;;;;;;5053547;28;20455;-57
2024/02/05 09:07:35;;;;;;;1.17;0.40;;;;;;;;;;5054172;28;20032;-55
2024/02/05 09:10:01;;;;;;;1.00;0.45;;;;;;;;;;5054068;28;20025;-56
2024/02/05 09:12:27;;;;;;;0.57;0.32;;;;;;;;;;5054983;28;20090;-55
2024/02/05 09:14:54;;;;;;;1.83;0.25;;;;;;;;;;5058466;28;20021;-56
2024/02/05 09:17:20;;;;;;;2.85;0.73;;;;;;;;;;5057444;28;20422;-57
2024/02/05 09:19:46;;;;;;;1.85;0.77;;;;;;;;;;5058172;28;20061;-57
2024/02/05 09:22:12;;;;;;;0.60;0.30;;;;;;;;;;5057507;28;20021;-56
2024/02/05 09:24:38;;;;;;;1.15;0.57;;;;;;;;;;5058041;28;20173;-56
2024/02/05 09:27:05;;;;;;;1.70;0.60;;;;;;;;;;5057925;28;20032;-55
2024/02/05 09:29:31;;;;;;;0.50;0.35;;;;;;;;;;5057415;28;20044;-56
2024/02/05 09:31:57;;;;;;;0.95;0.45;;;;;;;;;;5058148;28;20020;-56
2024/02/05 09:34:23;;;;;;;1.55;0.75;;;;;;;;;;5058069;28;20339;-57
2024/02/05 09:36:49;;;;;;;0.90;0.30;;;;;;;;;;5057979;28;20094;-56
2024/02/05 09:39:15;;;;;;;0.28;0.17;;;;;;;;;;5057243;28;20083;-55
2024/02/05 09:41:41;;;;;;;1.70;0.50;;;;;;;;;;5057164;28;20033;-56
2024/02/05 09:44:08;;;;;;;2.00;0.50;;;;;;;;;;5056838;28;20451;-56
2024/02/05 09:46:34;;;;;;;1.52;0.57;;;;;;;;;;5057065;28;20071;-55
2024/02/05 09:49:04;;;;;;;0.63;0.30;;;;;;;;;;5057629;28;20437;-55
2024/02/05 09:51:32;;;;;;;1.67;0.52;;;;;;;;;;5057585;28;20389;-57
2024/02/05 09:53:58;;;;;;;1.00;0.43;;;;;;;;;;5056936;28;20116;-55
2024/02/05 09:56:25;;;;;;;1.85;0.55;;;;;;;;;;5056721;28;20123;-57
2024/02/05 09:58:52;;;;;;;1.35;0.43;;;;;;;;;;5056845;28;20474;-55
2024/02/05 10:01:20;;;;;;;1.58;0.63;;;;;;;;;;5056790;28;20052;-55
2024/02/05 10:03:47;;;;;;;1.13;0.47;;;;;;;;;;5057235;28;20025;-56
2024/02/05 10:06:17;;;;;;;3.78;0.45;;;;;;;;;;5057262;28;20029;-56
2024/02/05 10:08:44;;;;;;;1.13;0.47;;;;;;;;;;5057489;28;20048;-57
2024/02/05 10:11:14;;;;;;;0.50;0.30;;;;;;;;;;5056687;28;20036;-57
2024/02/05 10:13:40;;;;;;;0.55;0.43;;;;;;;;;;5056656;28;20025;-54
2024/02/05 10:16:06;;;;;;;2.33;0.90;;;;;;;;;;5056418;28;20032;-57
2024/02/05 10:18:32;;;;;;;1.83;0.73;;;;;;;;;;5056891;28;20025;-57
2024/02/05 10:21:00;;;;;;;1.58;0.52;;;;;;;;;;5056464;28;20016;-57
2024/02/05 10:23:26;;;;;;;0.93;0.52;;;;;;;;;;5055889;28;20455;-55
2024/02/05 10:25:56;;;;;;;1.92;0.90;;;;;;;;;;5056239;28;20025;-56
2024/02/05 10:28:22;;;;;;;0.90;0.40;;;;;;;;;;5056376;28;20017;-57
2024/02/05 10:30:48;;;;;;;1.20;0.43;;;;;;;;;;5056592;28;20074;-56
2024/02/05 10:33:17;;;;;;;1.98;0.68;;;;;;;;;;5056742;28;20108;-57
2024/02/05 10:35:43;;;;;;;0.77;0.35;;;;;;;;;;5054892;28;20083;-56
2024/02/05 10:38:09;;;;;;;1.65;0.50;;;;;;;;;;5056984;28;20451;-57
2024/02/05 10:40:36;;;;;;;1.33;0.52;;;;;;;;;;5056389;28;20079;-58
2024/02/05 10:43:03;;;;;;;1.17;0.50;;;;;;;;;;5056024;28;20032;-57
2024/02/05 10:45:30;;;;;;;1.15;0.25;;;;;;;;;;5056010;28;20017;-56
2024/02/05 10:48:28;;;;;;;1.27;0.60;;;;;;;;;;5056445;28;20055;-54
2024/02/05 10:50:54;;;;;;;5.43;0.50;;;;;;;;;;5054470;28;20033;-58
2024/02/05 10:53:21;;;;;;;1.55;0.65;;;;;;;;;;5055853;28;20031;-55
2024/02/05 10:55:47;;;;;;;1.38;0.40;;;;;;;;;;5055873;28;20049;-56
2024/02/05 10:58:16;;;;;;;1.90;0.65;;;;;;;;;;5055643;28;20429;-58
2024/02/05 11:00:42;;;;;;;0.63;0.28;;;;;;;;;;5055660;28;20463;-58
2024/02/05 11:03:14;;;;;;;1.17;0.68;;;;;;;;;;5055549;28;20032;-56
2024/02/05 11:05:43;;;;;;;1.08;0.60;;;;;;;;;;5055574;28;20098;-58
2024/02/05 11:08:12;;;;;;;2.55;0.57;;;;;;;;;;5055757;28;20025;-58
2024/02/05 11:10:44;;;;;;;1.58;0.45;;;;;;;;;;5055218;28;20482;-57
2024/02/05 11:13:19;;;;;;;1.20;0.50;;;;;;;;;;5055502;28;20387;-57
2024/02/05 11:15:45;;;;;;;1.33;0.55;;;;;;;;;;5055390;28;20064;-57
2024/02/05 11:18:14;;;;;;;1.75;0.80;;;;;;;;;;5055677;28;20451;-54
2024/02/05 11:20:42;;;;;;;1.20;0.47;;;;;;;;;;5055358;28;20071;-58
2024/02/05 11:23:09;;;;;;;4.78;0.70;;;;;;;;;;5055298;28;20446;-58
2024/02/05 11:25:35;;;;;;;2.08;1.00;;;;;;;;;;5055320;28;20025;-57
2024/02/05 11:28:05;;;;;;;0.98;0.47;;;;;;;;;;5055533;28;20078;-58
2024/02/05 11:30:31;;;;;;;1.75;0.80;;;;;;;;;;5055163;28;20032;-57
2024/02/05 11:32:57;;;;;;;1.83;0.45;;;;;;;;;;5055133;28;20033;-57
2024/02/05 11:35:29;;;;;;;2.08;0.85;;;;;;;;;;5054222;28;20055;-58
2024/02/05 11:38:06;;;;;;;1.27;0.70;;;;;;;;;;5056263;28;20029;-58
2024/02/05 11:40:33;;;;;;;2.70;0.80;;;;;;;;;;5054938;28;20029;-58
2024/02/05 11:43:03;;;;;;;1.45;0.70;;;;;;;;;;5055458;28;20021;-58
2024/02/05 11:45:29;;;;;;;2.65;0.85;;;;;;;;;;5055167;28;20439;-58
2024/02/05 11:47:58;;;;;;;1.73;0.75;;;;;;;;;;5055718;28;20025;-58
2024/02/05 11:50:24;;;;;;;6.03;0.77;;;;;;;;;;5054780;28;20029;-57
2024/02/05 11:52:50;;;;;;;1.92;0.70;;;;;;;;;;5054733;28;20021;-57
2024/02/05 11:55:16;;;;;;;1.58;0.63;;;;;;;;;;5054830;28;20078;-58
2024/02/05 11:57:45;;;;;;;1.48;0.63;;;;;;;;;;5055112;28;20021;-58
2024/02/05 12:00:14;;;;;;;1.20;0.52;;;;;;;;;;5054739;28;20170;-53
2024/02/05 12:02:41;;;;;;;1.42;0.80;;;;;;;;;;5054263;28;20105;-58
2024/02/05 12:05:07;;;;;;;1.48;0.50;;;;;;;;;;5054036;28;20032;-59
2024/02/05 12:07:33;;;;;;;1.38;0.47;;;;;;;;;;5054463;28;20029;-56
2024/02/05 12:09:59;;;;;;;1.05;0.50;;;;;;;;;;5054376;28;20159;-55
2024/02/05 12:12:25;;;;;;;0.95;0.50;;;;;;;;;;5054158;28;20021;-54
2024/02/05 12:14:51;;;;;;;2.47;0.95;;;;;;;;;;5054269;28;20058;-51
2024/02/05 12:17:19;;;;;;;1.90;0.57;;;;;;;;;;5054273;28;20044;-56
2024/02/05 12:19:45;;;;;;;2.65;0.65;;;;;;;;;;5054998;28;20029;-55
2024/02/05 12:22:11;;;;;;;1.65;0.70;;;;;;;;;;5053568;28;20090;-56
2024/02/05 12:24:38;;;;;;;2.85;1.05;;;;;;;;;;5053994;28;20050;-54
2024/02/05 12:27:04;;;;;;;1.20;0.60;;;;;;;;;;5054041;28;20459;-57
2024/02/05 12:29:30;;;;;;;4.63;1.45;;;;;;;;;;5054627;28;20024;-56
2024/02/05 12:32:06;;;;;;;2.17;0.63;;;;;;;;;;5053669;28;20108;-53
2024/02/05 12:34:32;;;;;;;1.52;0.63;;;;;;;;;;5054474;28;20336;-54
2024/02/05 12:36:58;;;;;;;3.42;0.82;;;;;;;;;;5053829;28;20036;-54
2024/02/05 12:39:24;;;;;;;1.75;0.73;;;;;;;;;;5054246;28;20029;-55
2024/02/05 12:41:50;;;;;;;1.33;0.65;;;;;;;;;;5053877;28;20029;-56
2024/02/05 12:44:16;;;;;;;3.28;0.82;;;;;;;;;;5054145;28;20032;-57
2024/02/05 12:46:42;;;;;;;1.60;0.80;;;;;;;;;;5053765;28;20037;-56
2024/02/05 12:49:08;;;;;;;2.17;0.98;;;;;;;;;;5053354;28;20060;-55
2024/02/05 12:51:36;;;;;;;2.25;0.80;;;;;;;;;;5054563;28;20032;-56
2024/02/05 12:54:02;;;;;;;1.75;0.70;;;;;;;;;;5054230;28;20025;-52
2024/02/05 12:56:30;;;;;;;2.13;0.65;;;;;;;;;;5053896;28;20490;-57
2024/02/05 12:58:58;;;;;;;2.88;0.70;;;;;;;;;;5053594;28;20048;-57
2024/02/05 13:01:24;;;;;;;3.72;0.90;;;;;;;;;;5052693;28;20052;-56
2024/02/05 13:03:50;;;;;;;4.03;0.95;;;;;;;;;;5053050;28;20023;-54
2024/02/05 13:06:23;;;;;;;5.18;0.90;;;;;;;;;;5052872;28;20031;-57
2024/02/05 13:08:49;;;;;;;1.05;0.40;;;;;;;;;;5053907;28;20029;-55
2024/02/05 13:11:15;;;;;;;3.92;0.80;;;;;;;;;;5053229;28;20502;-53
2024/02/05 13:13:41;;;;;;;2.58;1.17;;;;;;;;;;5053729;28;20021;-57
2024/02/05 13:16:08;;;;;;;1.75;0.93;;;;;;;;;;5053052;28;20028;-58
2024/02/05 13:18:34;;;;;;;3.85;0.60;;;;;;;;;;5053857;28;20033;-59
2024/02/05 13:21:00;;;;;;;1.20;0.60;;;;;;;;;;5052737;28;20036;-58
2024/02/05 13:23:26;;;;;;;1.27;0.70;;;;;;;;;;5052380;28;20028;-58
2024/02/05 13:25:52;;;;;;;1.27;0.47;;;;;;;;;;5053026;28;20119;-58
2024/02/05 13:28:19;;;;;;;0.95;0.40;;;;;;;;;;5053319;28;20107;-58
2024/02/05 13:30:46;;;;;;;1.02;0.40;;;;;;;;;;5052407;28;20036;-56
2024/02/05 13:33:13;;;;;;;1.52;0.80;;;;;;;;;;5052653;28;20036;-56
2024/02/05 13:35:39;;;;;;;1.35;0.47;;;;;;;;;;5052536;28;20033;-57
2024/02/05 13:38:04;;;;;;;1.40;0.70;;;;;;;;;;5052616;28;20051;-57
2024/02/05 13:40:31;;;;;;;3.55;0.90;;;;;;;;;;5051534;28;20497;-57
2024/02/05 13:42:59;;;;;;;2.13;0.80;;;;;;;;;;5053139;28;20021;-56
2024/02/05 13:45:25;;;;;;;4.40;0.68;;;;;;;;;;5052930;28;20057;-55
2024/02/05 13:47:52;;;;;;;1.08;0.60;;;;;;;;;;5053401;28;20033;-55
2024/02/05 13:50:18;;;;;;;1.48;0.55;;;;;;;;;;5052978;28;20093;-54
2024/02/05 13:52:44;;;;;;;2.20;0.88;;;;;;;;;;5051981;28;20517;-58
2024/02/05 13:55:12;;;;;;;2.63;1.00;;;;;;;;;;5052173;28;20434;-58
2024/02/05 13:57:38;;;;;;;3.42;0.82;;;;;;;;;;5052430;28;20045;-58
2024/02/05 14:00:05;;;;;;;2.22;1.00;;;;;;;;;;5054038;28;20041;-58
2024/02/05 14:02:34;;;;;;;1.23;0.55;;;;;;;;;;5055801;28;20413;-58
2024/02/05 14:05:00;;;;;;;1.13;0.50;;;;;;;;;;5055225;28;20033;-57
2024/02/05 14:07:26;;;;;;;5.63;0.70;;;;;;;;;;5056599;28;20099;-57
2024/02/05 14:09:52;;;;;;;1.98;0.68;;;;;;;;;;5056622;28;20447;-57
2024/02/05 14:12:18;;;;;;;1.00;0.50;;;;;;;;;;5056475;28;20071;-57
2024/02/05 14:14:44;;;;;;;1.30;0.75;;;;;;;;;;5057005;28;20029;-58
2024/02/05 14:17:10;;;;;;;1.50;0.80;;;;;;;;;;5056301;28;20060;-56
2024/02/05 14:19:36;;;;;;;1.55;0.65;;;;;;;;;;5056996;28;20060;-57
2024/02/05 14:22:03;;;;;;;0.90;0.32;;;;;;;;;;5056106;28;20390;-56
2024/02/05 14:24:29;;;;;;;1.30;0.70;;;;;;;;;;5056611;28;20052;-55
2024/02/05 14:26:55;;;;;;;1.20;0.75;;;;;;;;;;5056733;28;20032;-57
2024/02/05 14:29:23;;;;;;;2.30;0.75;;;;;;;;;;5056766;28;20028;-58
2024/02/05 14:31:50;;;;;;;2.28;0.65;;;;;;;;;;5056490;28;20104;-56
2024/02/05 14:34:19;;;;;;;3.30;0.55;;;;;;;;;;5056649;28;20402;-55
2024/02/05 14:36:45;;;;;;;2.25;1.25;;;;;;;;;;5055651;28;20044;-56
2024/02/05 14:39:15;;;;;;;1.40;0.63;;;;;;;;;;5056114;28;20033;-56